createdAt,value
2022-12-18T00:00:32.936Z,89
2022-12-18T00:01:33.108Z,89
2022-12-18T00:02:33.076Z,89
2022-12-18T00:03:33.042Z,89
2022-12-18T00:04:32.936Z,89
2022-12-18T00:05:32.941Z,89
2022-12-18T00:06:32.984Z,89
2022-12-18T00:07:33.058Z,89
2022-12-18T00:08:32.967Z,89
2022-12-18T00:09:39.929Z,89
2022-12-18T00:10:32.958Z,89
2022-12-18T00:11:33.003Z,89
2022-12-18T00:12:32.954Z,90
2022-12-18T00:13:32.985Z,90
2022-12-18T00:14:32.979Z,90
2022-12-18T00:15:32.990Z,90
2022-12-18T00:16:33.018Z,90
2022-12-18T00:17:33.022Z,90
2022-12-18T00:18:32.984Z,90
2022-12-18T00:19:33.053Z,91
2022-12-18T00:20:33.015Z,90
2022-12-18T00:21:33.060Z,90
2022-12-18T00:22:33.020Z,90
2022-12-18T00:23:33.003Z,90
2022-12-18T00:24:33.034Z,90
2022-12-18T00:25:33.088Z,90
2022-12-18T00:26:33.030Z,90
2022-12-18T00:27:33.045Z,90
2022-12-18T00:28:33.046Z,90
2022-12-18T00:29:33.002Z,90
2022-12-18T00:30:33.066Z,89
2022-12-18T00:31:33.116Z,89
2022-12-18T00:32:33.033Z,89
2022-12-18T00:33:33.126Z,90
2022-12-18T00:34:33.017Z,90
2022-12-18T00:35:33.021Z,90
2022-12-18T00:36:33.073Z,90
2022-12-18T00:37:33.052Z,90
2022-12-18T00:38:33.051Z,90
2022-12-18T00:39:33.085Z,90
2022-12-18T00:40:33.138Z,90
2022-12-18T00:41:33.096Z,90
2022-12-18T00:42:33.055Z,90
2022-12-18T00:43:33.085Z,90
2022-12-18T00:44:33.052Z,90
2022-12-18T00:45:33.154Z,90
2022-12-18T00:46:33.078Z,90
2022-12-18T00:47:33.085Z,90
2022-12-18T00:48:33.056Z,90
2022-12-18T00:49:33.138Z,90
2022-12-18T00:50:33.064Z,90
2022-12-18T00:51:33.115Z,89
2022-12-18T00:52:33.113Z,89
2022-12-18T00:53:33.163Z,89
2022-12-18T00:54:33.094Z,89
2022-12-18T00:55:33.342Z,89
2022-12-18T00:56:33.102Z,89
2022-12-18T00:57:33.159Z,89
2022-12-18T00:58:33.146Z,90
2022-12-18T00:59:33.123Z,90
2022-12-18T01:00:33.146Z,90
2022-12-18T01:01:33.318Z,90
2022-12-18T01:02:33.242Z,90
2022-12-18T01:03:33.105Z,90
2022-12-18T01:04:33.131Z,90
2022-12-18T01:05:33.222Z,90
2022-12-18T01:06:33.172Z,90
2022-12-18T01:07:33.162Z,89
2022-12-18T01:08:33.145Z,90
2022-12-18T01:09:33.218Z,90
2022-12-18T01:10:33.187Z,90
2022-12-18T01:11:33.182Z,90
2022-12-18T01:12:33.149Z,90
2022-12-18T01:13:33.159Z,90
2022-12-18T01:14:33.140Z,90
2022-12-18T01:15:33.176Z,90
2022-12-18T01:16:33.192Z,90
2022-12-18T01:17:33.218Z,90
2022-12-18T01:18:33.152Z,90
2022-12-18T01:19:33.231Z,90
2022-12-18T01:20:33.170Z,90
2022-12-18T01:21:33.227Z,90
2022-12-18T01:22:33.183Z,90
2022-12-18T01:23:33.194Z,90
2022-12-18T01:24:33.179Z,90
2022-12-18T01:25:33.255Z,90
2022-12-18T01:26:33.272Z,90
2022-12-18T01:27:33.223Z,90
2022-12-18T01:28:33.214Z,90
2022-12-18T01:29:33.180Z,89
2022-12-18T01:30:33.183Z,89
2022-12-18T01:31:33.302Z,89
2022-12-18T01:32:33.213Z,90
2022-12-18T01:33:33.297Z,90
2022-12-18T01:34:33.207Z,89
2022-12-18T01:35:33.255Z,89
2022-12-18T01:36:33.287Z,89
2022-12-18T01:37:33.216Z,89
2022-12-18T01:38:33.281Z,89
2022-12-18T01:39:33.288Z,89
2022-12-18T01:40:33.219Z,89
2022-12-18T01:41:33.217Z,89
2022-12-18T01:42:33.270Z,89
2022-12-18T01:43:33.222Z,89
2022-12-18T01:44:33.227Z,89
2022-12-18T01:45:33.271Z,89
2022-12-18T01:46:33.270Z,90
2022-12-18T01:47:33.225Z,90
2022-12-18T01:48:33.225Z,90
2022-12-18T01:49:33.225Z,90
2022-12-18T01:50:33.238Z,90
2022-12-18T01:51:33.282Z,90
2022-12-18T01:52:33.226Z,90
2022-12-18T01:53:33.236Z,90
2022-12-18T01:54:33.235Z,90
2022-12-18T01:55:33.241Z,90
2022-12-18T01:56:33.254Z,89
2022-12-18T01:57:33.232Z,89
2022-12-18T01:58:33.228Z,90
2022-12-18T01:59:33.342Z,90
2022-12-18T02:00:33.234Z,90
2022-12-18T02:01:33.418Z,89
2022-12-18T02:02:33.291Z,89
2022-12-18T02:03:33.267Z,89
2022-12-18T02:04:33.275Z,89
2022-12-18T02:05:33.236Z,89
2022-12-18T02:06:33.272Z,89
2022-12-18T02:07:33.238Z,89
2022-12-18T02:08:33.229Z,89
2022-12-18T02:09:33.284Z,89
2022-12-18T02:10:33.242Z,89
2022-12-18T02:11:33.291Z,89
2022-12-18T02:12:33.384Z,89
2022-12-18T02:13:33.346Z,89
2022-12-18T02:14:33.266Z,89
2022-12-18T02:15:33.363Z,89
2022-12-18T02:16:33.372Z,89
2022-12-18T02:17:33.314Z,89
2022-12-18T02:18:33.295Z,89
2022-12-18T02:19:33.270Z,89
2022-12-18T02:20:33.304Z,89
2022-12-18T02:21:33.314Z,89
2022-12-18T02:22:33.270Z,89
2022-12-18T02:23:33.372Z,89
2022-12-18T02:24:33.285Z,89
2022-12-18T02:25:33.796Z,89
2022-12-18T02:26:33.352Z,89
2022-12-18T02:27:33.306Z,89
2022-12-18T02:28:33.471Z,89
2022-12-18T02:29:33.310Z,89
2022-12-18T02:30:33.358Z,89
2022-12-18T02:31:33.347Z,89
2022-12-18T02:32:33.347Z,89
2022-12-18T02:33:33.347Z,89
2022-12-18T02:34:33.343Z,89
2022-12-18T02:35:33.339Z,89
2022-12-18T02:36:33.381Z,89
2022-12-18T02:37:33.344Z,89
2022-12-18T02:38:33.341Z,89
2022-12-18T02:39:33.341Z,90
2022-12-18T02:40:33.379Z,90
2022-12-18T02:41:33.354Z,90
2022-12-18T02:42:33.348Z,90
2022-12-18T02:43:33.351Z,90
2022-12-18T02:44:33.463Z,89
2022-12-18T02:45:33.353Z,89
2022-12-18T02:46:33.343Z,89
2022-12-18T02:47:33.345Z,89
2022-12-18T02:48:33.377Z,89
2022-12-18T02:49:33.418Z,89
2022-12-18T02:50:33.350Z,89
2022-12-18T02:51:33.384Z,89
2022-12-18T02:52:33.349Z,89
2022-12-18T02:53:33.380Z,89
2022-12-18T02:54:33.405Z,89
2022-12-18T02:55:33.482Z,89
2022-12-18T02:56:33.411Z,89
2022-12-18T02:57:33.387Z,89
2022-12-18T02:58:33.371Z,89
2022-12-18T02:59:33.428Z,89
2022-12-18T03:00:33.552Z,89
2022-12-18T03:01:33.529Z,89
2022-12-18T03:02:33.550Z,89
2022-12-18T03:03:33.431Z,89
2022-12-18T03:04:33.383Z,89
2022-12-18T03:05:33.428Z,89
2022-12-18T03:06:33.425Z,89
2022-12-18T03:07:33.493Z,89
2022-12-18T03:08:33.405Z,89
2022-12-18T03:09:33.406Z,89
2022-12-18T03:10:33.416Z,90
2022-12-18T03:11:33.446Z,90
2022-12-18T03:12:33.414Z,90
2022-12-18T03:13:33.439Z,90
2022-12-18T03:14:33.439Z,90
2022-12-18T03:15:33.405Z,90
2022-12-18T03:16:33.623Z,90
2022-12-18T03:17:33.403Z,90
2022-12-18T03:18:33.411Z,90
2022-12-18T03:19:33.464Z,91
2022-12-18T03:20:33.478Z,91
2022-12-18T03:21:33.535Z,90
2022-12-18T03:22:33.505Z,90
2022-12-18T03:23:33.453Z,90
2022-12-18T03:24:33.455Z,90
2022-12-18T03:25:33.455Z,90
2022-12-18T03:26:33.504Z,90
2022-12-18T03:27:33.490Z,90
2022-12-18T03:28:33.450Z,90
2022-12-18T03:29:33.452Z,89
2022-12-18T03:30:33.569Z,89
2022-12-18T03:31:33.504Z,89
2022-12-18T03:32:33.619Z,89
2022-12-18T03:33:33.499Z,89
2022-12-18T03:34:33.469Z,89
2022-12-18T03:35:33.468Z,89
2022-12-18T03:36:33.535Z,89
2022-12-18T03:37:33.469Z,89
2022-12-18T03:38:33.467Z,89
2022-12-18T03:39:33.467Z,89
2022-12-18T03:40:33.472Z,89
2022-12-18T03:41:33.574Z,89
2022-12-18T03:42:33.513Z,89
2022-12-18T03:43:33.487Z,89
2022-12-18T03:44:33.544Z,89
2022-12-18T03:45:33.590Z,89
2022-12-18T03:46:33.597Z,89
2022-12-18T03:47:33.573Z,89
2022-12-18T03:48:33.666Z,89
2022-12-18T03:49:33.516Z,89
2022-12-18T03:50:33.513Z,89
2022-12-18T03:51:33.562Z,89
2022-12-18T03:52:33.546Z,89
2022-12-18T03:53:33.510Z,89
2022-12-18T03:54:33.563Z,89
2022-12-18T03:55:33.512Z,88
2022-12-18T03:56:33.545Z,88
2022-12-18T03:57:33.516Z,88
2022-12-18T03:58:33.525Z,88
2022-12-18T03:59:33.518Z,88
2022-12-18T04:00:33.547Z,88
2022-12-18T04:01:33.730Z,88
2022-12-18T04:02:33.687Z,88
2022-12-18T04:03:33.712Z,88
2022-12-18T04:04:33.675Z,89
2022-12-18T04:05:33.548Z,89
2022-12-18T04:06:33.583Z,89
2022-12-18T04:07:33.642Z,89
2022-12-18T04:08:33.600Z,89
2022-12-18T04:09:33.621Z,89
2022-12-18T04:10:33.564Z,89
2022-12-18T04:11:33.566Z,88
2022-12-18T04:12:33.559Z,88
2022-12-18T04:13:33.619Z,88
2022-12-18T04:14:33.592Z,88
2022-12-18T04:15:33.652Z,88
2022-12-18T04:16:33.608Z,88
2022-12-18T04:17:33.566Z,88
2022-12-18T04:18:33.604Z,88
2022-12-18T04:19:33.702Z,88
2022-12-18T04:20:33.747Z,88
2022-12-18T04:21:33.625Z,88
2022-12-18T04:22:33.596Z,89
2022-12-18T04:23:33.591Z,89
2022-12-18T04:24:33.585Z,89
2022-12-18T04:25:33.595Z,89
2022-12-18T04:26:33.665Z,89
2022-12-18T04:27:33.636Z,89
2022-12-18T04:28:33.636Z,89
2022-12-18T04:29:33.644Z,88
2022-12-18T04:30:33.635Z,89
2022-12-18T04:31:33.805Z,89
2022-12-18T04:32:33.659Z,89
2022-12-18T04:33:33.715Z,89
2022-12-18T04:34:33.685Z,89
2022-12-18T04:35:33.717Z,89
2022-12-18T04:36:33.808Z,89
2022-12-18T04:37:33.668Z,89
2022-12-18T04:38:33.668Z,89
2022-12-18T04:39:33.634Z,89
2022-12-18T04:40:33.659Z,89
2022-12-18T04:41:33.679Z,89
2022-12-18T04:42:33.778Z,89
2022-12-18T04:43:33.732Z,89
2022-12-18T04:44:33.706Z,89
2022-12-18T04:45:33.748Z,89
2022-12-18T04:46:33.789Z,89
2022-12-18T04:47:33.693Z,89
2022-12-18T04:48:33.647Z,89
2022-12-18T04:49:33.696Z,89
2022-12-18T04:50:33.683Z,89
2022-12-18T04:51:33.750Z,89
2022-12-18T04:52:33.785Z,89
2022-12-18T04:53:33.673Z,89
2022-12-18T04:54:33.718Z,89
2022-12-18T04:55:33.669Z,89
2022-12-18T04:56:33.759Z,89
2022-12-18T04:57:33.691Z,88
2022-12-18T04:58:33.679Z,88
2022-12-18T04:59:33.724Z,88
2022-12-18T05:00:33.680Z,87
2022-12-18T05:01:34.895Z,87
2022-12-18T05:02:33.776Z,87
2022-12-18T05:03:33.734Z,87
2022-12-18T05:04:33.713Z,87
2022-12-18T05:05:33.689Z,88
2022-12-18T05:06:33.721Z,88
2022-12-18T05:07:33.693Z,88
2022-12-18T05:08:33.800Z,88
2022-12-18T05:09:33.796Z,89
2022-12-18T05:10:37.907Z,89
2022-12-18T05:11:33.834Z,89
2022-12-18T05:12:33.717Z,89
2022-12-18T05:13:33.750Z,89
2022-12-18T05:14:33.715Z,89
2022-12-18T05:15:33.796Z,89
2022-12-18T05:16:33.845Z,89
2022-12-18T05:17:33.753Z,89
2022-12-18T05:18:33.719Z,89
2022-12-18T05:19:33.748Z,89
2022-12-18T05:20:33.724Z,89
2022-12-18T05:21:33.747Z,89
2022-12-18T05:22:33.729Z,89
2022-12-18T05:23:33.792Z,89
2022-12-18T05:24:33.859Z,90
2022-12-18T05:25:33.808Z,90
2022-12-18T05:26:33.886Z,90
2022-12-18T05:27:33.846Z,90
2022-12-18T05:28:33.806Z,90
2022-12-18T05:29:33.811Z,89
2022-12-18T05:30:33.819Z,89
2022-12-18T05:31:39.018Z,89
2022-12-18T05:32:33.772Z,89
2022-12-18T05:33:34.226Z,89
2022-12-18T05:34:33.793Z,89
2022-12-18T05:35:34.262Z,89
2022-12-18T05:36:33.813Z,89
2022-12-18T05:37:36.925Z,89
2022-12-18T05:38:33.810Z,89
2022-12-18T05:39:33.955Z,88
2022-12-18T05:40:33.946Z,88
2022-12-18T05:41:33.842Z,88
2022-12-18T05:42:33.814Z,88
2022-12-18T05:43:33.846Z,89
2022-12-18T05:44:33.801Z,89
2022-12-18T05:45:33.832Z,88
2022-12-18T05:46:34.032Z,88
2022-12-18T05:47:33.838Z,88
2022-12-18T05:48:33.818Z,88
2022-12-18T05:49:33.838Z,88
2022-12-18T05:50:33.823Z,88
2022-12-18T05:51:33.874Z,88
2022-12-18T05:52:33.817Z,88
2022-12-18T05:53:33.855Z,89
2022-12-18T05:54:33.810Z,90
2022-12-18T05:55:33.852Z,90
2022-12-18T05:56:33.967Z,90
2022-12-18T05:57:33.830Z,90
2022-12-18T05:58:33.836Z,89
2022-12-18T05:59:33.838Z,89
2022-12-18T06:00:33.806Z,89
2022-12-18T06:01:33.892Z,89
2022-12-18T06:02:33.941Z,89
2022-12-18T06:03:34.277Z,89
2022-12-18T06:04:33.834Z,89
2022-12-18T06:05:33.835Z,89
2022-12-18T06:06:33.851Z,89
2022-12-18T06:07:34.078Z,89
2022-12-18T06:08:33.847Z,89
2022-12-18T06:09:33.877Z,89
2022-12-18T06:10:33.862Z,89
2022-12-18T06:11:33.943Z,89
2022-12-18T06:12:33.986Z,89
2022-12-18T06:13:33.879Z,89
2022-12-18T06:14:33.877Z,89
2022-12-18T06:15:33.891Z,89
2022-12-18T06:16:33.949Z,89
2022-12-18T06:17:33.921Z,89
2022-12-18T06:18:33.864Z,89
2022-12-18T06:19:33.887Z,89
2022-12-18T06:20:34.209Z,89
2022-12-18T06:21:33.916Z,89
2022-12-18T06:22:33.884Z,89
2022-12-18T06:23:33.884Z,89
2022-12-18T06:24:33.870Z,89
2022-12-18T06:25:33.911Z,89
2022-12-18T06:26:33.887Z,89
2022-12-18T06:27:33.962Z,89
2022-12-18T06:28:34.021Z,88
2022-12-18T06:29:33.966Z,88
2022-12-18T06:30:33.913Z,88
2022-12-18T06:31:34.052Z,89
2022-12-18T06:32:33.926Z,89
2022-12-18T06:33:33.967Z,89
2022-12-18T06:34:33.926Z,89
2022-12-18T06:35:33.922Z,89
2022-12-18T06:36:33.967Z,89
2022-12-18T06:37:33.962Z,89
2022-12-18T06:38:33.928Z,89
2022-12-18T06:39:34.085Z,89
2022-12-18T06:40:33.928Z,89
2022-12-18T06:41:33.971Z,89
2022-12-18T06:42:33.937Z,89
2022-12-18T06:43:33.934Z,89
2022-12-18T06:44:34.081Z,89
2022-12-18T06:45:33.973Z,88
2022-12-18T06:46:33.968Z,88
2022-12-18T06:47:34.042Z,89
2022-12-18T06:48:33.975Z,89
2022-12-18T06:49:33.972Z,89
2022-12-18T06:50:33.971Z,89
2022-12-18T06:51:33.986Z,89
2022-12-18T06:52:33.976Z,89
2022-12-18T06:53:33.971Z,89
2022-12-18T06:54:33.970Z,89
2022-12-18T06:55:33.972Z,89
2022-12-18T06:56:33.973Z,89
2022-12-18T06:57:33.977Z,89
2022-12-18T06:58:34.035Z,89
2022-12-18T06:59:34.095Z,89
2022-12-18T07:00:34.103Z,89
2022-12-18T07:01:34.150Z,88
2022-12-18T07:02:34.214Z,88
2022-12-18T07:03:34.283Z,88
2022-12-18T07:04:34.026Z,88
2022-12-18T07:05:34.097Z,88
2022-12-18T07:06:34.052Z,88
2022-12-18T07:07:34.107Z,88
2022-12-18T07:08:34.039Z,88
2022-12-18T07:09:34.032Z,89
2022-12-18T07:10:34.001Z,89
2022-12-18T07:11:34.049Z,89
2022-12-18T07:12:34.032Z,89
2022-12-18T07:13:34.037Z,89
2022-12-18T07:14:34.049Z,89
2022-12-18T07:15:34.102Z,89
2022-12-18T07:16:34.204Z,88
2022-12-18T07:17:34.098Z,88
2022-12-18T07:18:34.041Z,88
2022-12-18T07:19:34.118Z,88
2022-12-18T07:20:34.029Z,88
2022-12-18T07:21:34.087Z,88
2022-12-18T07:22:34.034Z,88
2022-12-18T07:23:34.139Z,89
2022-12-18T07:24:34.032Z,89
2022-12-18T07:25:34.079Z,89
2022-12-18T07:26:34.085Z,89
2022-12-18T07:27:34.139Z,89
2022-12-18T07:28:34.047Z,89
2022-12-18T07:29:34.095Z,89
2022-12-18T07:30:34.053Z,89
2022-12-18T07:31:34.405Z,89
2022-12-18T07:32:34.215Z,88
2022-12-18T07:33:34.047Z,88
2022-12-18T07:34:34.041Z,88
2022-12-18T07:35:34.166Z,88
2022-12-18T07:36:34.084Z,88
2022-12-18T07:37:34.071Z,88
2022-12-18T07:38:34.068Z,88
2022-12-18T07:39:34.112Z,88
2022-12-18T07:40:34.067Z,88
2022-12-18T07:41:34.154Z,88
2022-12-18T07:42:34.077Z,88
2022-12-18T07:43:34.105Z,89
2022-12-18T07:44:34.075Z,89
2022-12-18T07:45:34.276Z,89
2022-12-18T07:46:34.095Z,89
2022-12-18T07:47:34.137Z,89
2022-12-18T07:48:34.188Z,89
2022-12-18T07:49:34.136Z,89
2022-12-18T07:50:34.075Z,90
2022-12-18T07:51:34.197Z,90
2022-12-18T07:52:34.105Z,90
2022-12-18T07:53:34.123Z,90
2022-12-18T07:54:34.106Z,90
2022-12-18T07:55:48.076Z,90
2022-12-18T07:56:34.160Z,90
2022-12-18T07:57:49.790Z,90
2022-12-18T07:58:34.112Z,90
2022-12-18T07:59:34.115Z,90
2022-12-18T08:00:34.117Z,89
2022-12-18T08:01:34.254Z,89
2022-12-18T08:02:34.355Z,89
2022-12-18T08:03:34.161Z,89
2022-12-18T08:04:34.244Z,88
2022-12-18T08:05:34.175Z,88
2022-12-18T08:06:34.194Z,88
2022-12-18T08:07:34.169Z,88
2022-12-18T08:08:34.129Z,88
2022-12-18T08:09:34.186Z,88
2022-12-18T08:10:34.123Z,88
2022-12-18T08:11:34.161Z,88
2022-12-18T08:12:34.177Z,88
2022-12-18T08:13:34.225Z,89
2022-12-18T08:14:34.132Z,89
2022-12-18T08:15:34.196Z,89
2022-12-18T08:16:34.301Z,89
2022-12-18T08:17:34.184Z,88
2022-12-18T08:18:34.176Z,88
2022-12-18T08:19:34.237Z,90
2022-12-18T08:20:34.273Z,90
2022-12-18T08:21:34.193Z,90
2022-12-18T08:22:34.196Z,90
2022-12-18T08:23:36.888Z,89
2022-12-18T08:24:34.191Z,88
2022-12-18T08:25:34.194Z,89
2022-12-18T08:26:34.200Z,90
2022-12-18T08:27:34.236Z,90
2022-12-18T08:28:34.195Z,89
2022-12-18T08:29:34.267Z,89
2022-12-18T08:30:34.230Z,89
2022-12-18T08:31:34.324Z,92
2022-12-18T08:32:34.195Z,92
2022-12-18T08:33:34.180Z,91
2022-12-18T08:34:34.185Z,90
2022-12-18T08:35:37.913Z,90
2022-12-18T08:36:34.420Z,89
2022-12-18T08:37:34.215Z,89
2022-12-18T08:38:34.250Z,88
2022-12-18T08:39:34.260Z,88
2022-12-18T08:40:34.214Z,88
2022-12-18T08:41:34.290Z,91
2022-12-18T08:42:34.206Z,92
2022-12-18T08:43:34.209Z,89
2022-12-18T08:44:34.212Z,88
2022-12-18T08:45:34.227Z,88
2022-12-18T08:46:34.292Z,88
2022-12-18T08:47:34.227Z,88
2022-12-18T08:48:34.258Z,88
2022-12-18T08:49:34.290Z,88
2022-12-18T08:50:34.218Z,88
2022-12-18T08:51:34.298Z,90
2022-12-18T08:52:34.474Z,89
2022-12-18T08:53:35.852Z,90
2022-12-18T08:54:34.231Z,90
2022-12-18T08:55:34.260Z,90
2022-12-18T08:56:34.247Z,88
2022-12-18T08:57:34.321Z,88
2022-12-18T08:58:34.242Z,90
2022-12-18T08:59:34.254Z,90
2022-12-18T09:00:34.310Z,90
2022-12-18T09:01:34.403Z,90
2022-12-18T09:02:34.358Z,90
2022-12-18T09:03:34.304Z,90
2022-12-18T09:04:34.232Z,89
2022-12-18T09:05:34.269Z,90
2022-12-18T09:06:34.251Z,89
2022-12-18T09:07:34.259Z,88
2022-12-18T09:08:34.372Z,90
2022-12-18T09:09:34.254Z,91
2022-12-18T09:10:36.544Z,91
2022-12-18T09:11:34.311Z,91
2022-12-18T09:12:34.265Z,89
2022-12-18T09:13:34.258Z,88
2022-12-18T09:14:34.246Z,87
2022-12-18T09:15:34.304Z,91
2022-12-18T09:16:34.304Z,91
2022-12-18T09:17:34.313Z,91
2022-12-18T09:18:34.248Z,91
2022-12-18T09:19:34.256Z,89
2022-12-18T09:20:34.424Z,87
2022-12-18T09:21:35.946Z,87
2022-12-18T09:22:34.288Z,87
2022-12-18T09:23:34.306Z,88
2022-12-18T09:24:34.398Z,88
2022-12-18T09:25:34.399Z,91
2022-12-18T09:26:34.384Z,93
2022-12-18T09:27:34.294Z,93
2022-12-18T09:28:34.299Z,92
2022-12-18T09:29:34.303Z,92
2022-12-18T09:30:34.372Z,91
2022-12-18T09:31:34.407Z,90
2022-12-18T09:32:34.310Z,89
2022-12-18T09:33:34.345Z,89
2022-12-18T09:34:34.313Z,89
2022-12-18T09:35:34.346Z,89
2022-12-18T09:36:34.346Z,88
2022-12-18T09:37:34.355Z,88
2022-12-18T09:38:34.308Z,88
2022-12-18T09:39:34.348Z,88
2022-12-18T09:40:34.467Z,88
2022-12-18T09:41:34.402Z,88
2022-12-18T09:42:34.350Z,88
2022-12-18T09:43:34.352Z,89
2022-12-18T09:44:34.400Z,88
2022-12-18T09:45:34.406Z,88
2022-12-18T09:46:34.390Z,88
2022-12-18T09:47:34.428Z,88
2022-12-18T09:48:34.337Z,88
2022-12-18T09:49:34.406Z,89
2022-12-18T09:50:34.338Z,88
2022-12-18T09:51:34.410Z,87
2022-12-18T09:52:34.338Z,88
2022-12-18T09:53:34.400Z,88
2022-12-18T09:54:34.369Z,88
2022-12-18T09:55:37.300Z,89
2022-12-18T09:56:34.518Z,89
2022-12-18T09:57:34.461Z,89
2022-12-18T09:58:34.422Z,88
2022-12-18T09:59:34.482Z,88
2022-12-18T10:00:34.386Z,88
2022-12-18T10:01:41.664Z,88
2022-12-18T10:02:34.574Z,87
2022-12-18T10:03:34.443Z,87
2022-12-18T10:04:34.454Z,88
2022-12-18T10:05:34.447Z,88
2022-12-18T10:06:34.393Z,88
2022-12-18T10:07:34.458Z,89
2022-12-18T10:08:34.455Z,89
2022-12-18T10:09:34.601Z,88
2022-12-18T10:10:34.432Z,87
2022-12-18T10:11:34.515Z,87
2022-12-18T10:12:34.634Z,88
2022-12-18T10:13:34.534Z,88
2022-12-18T10:14:34.475Z,88
2022-12-18T10:15:34.555Z,89
2022-12-18T10:16:34.505Z,90
2022-12-18T10:17:34.484Z,90
2022-12-18T10:18:34.542Z,89
2022-12-18T10:19:34.494Z,89
2022-12-18T10:20:34.498Z,90
2022-12-18T10:21:34.527Z,93
2022-12-18T10:22:34.496Z,93
2022-12-18T10:23:34.496Z,91
2022-12-18T10:24:34.496Z,90
2022-12-18T10:25:34.492Z,90
2022-12-18T10:26:34.539Z,89
2022-12-18T10:27:34.501Z,89
2022-12-18T10:28:34.616Z,89
2022-12-18T10:29:34.641Z,89
2022-12-18T10:30:34.572Z,88
2022-12-18T10:31:34.610Z,87
2022-12-18T10:32:34.576Z,87
2022-12-18T10:33:34.517Z,88
2022-12-18T10:34:34.511Z,90
2022-12-18T10:35:34.514Z,89
2022-12-18T10:36:34.558Z,88
2022-12-18T10:37:34.651Z,87
2022-12-18T10:38:34.610Z,87
2022-12-18T10:39:34.594Z,88
2022-12-18T10:40:34.573Z,88
2022-12-18T10:41:34.647Z,88
2022-12-18T10:42:34.567Z,89
2022-12-18T10:43:34.594Z,89
2022-12-18T10:44:34.671Z,91
2022-12-18T10:45:34.583Z,92
2022-12-18T10:46:34.623Z,91
2022-12-18T10:47:34.564Z,91
2022-12-18T10:48:34.553Z,90
2022-12-18T10:49:34.642Z,91
2022-12-18T10:51:08.956Z,92
2022-12-18T10:51:34.697Z,91
2022-12-18T10:52:34.653Z,90
2022-12-18T10:53:34.654Z,89
2022-12-18T10:54:34.579Z,88
2022-12-18T10:55:34.580Z,88
2022-12-18T10:56:34.624Z,88
2022-12-18T10:57:34.598Z,88
2022-12-18T10:58:34.580Z,88
2022-12-18T10:59:34.588Z,87
2022-12-18T11:00:34.698Z,89
2022-12-18T11:01:34.709Z,89
2022-12-18T11:02:34.782Z,89
2022-12-18T11:03:34.606Z,87
2022-12-18T11:04:34.584Z,89
2022-12-18T11:05:34.585Z,91
2022-12-18T11:06:34.615Z,88
2022-12-18T11:07:34.585Z,89
2022-12-18T11:08:34.593Z,88
2022-12-18T11:09:34.745Z,90
2022-12-18T11:10:34.653Z,93
2022-12-18T11:11:34.710Z,91
2022-12-18T11:12:34.641Z,90
2022-12-18T11:13:34.756Z,88
2022-12-18T11:14:34.629Z,87
2022-12-18T11:15:34.626Z,87
2022-12-18T11:16:34.810Z,87
2022-12-18T11:17:34.672Z,87
2022-12-18T11:18:34.641Z,88
2022-12-18T11:19:34.684Z,88
2022-12-18T11:20:34.626Z,88
2022-12-18T11:21:34.717Z,87
2022-12-18T11:22:34.685Z,89
2022-12-18T11:23:34.720Z,89
2022-12-18T11:24:34.673Z,46
2022-12-18T11:25:35.873Z,44
2022-12-18T11:26:34.764Z,44
2022-12-18T11:27:35.056Z,43
2022-12-18T11:28:34.727Z,44
2022-12-18T11:29:34.729Z,44
2022-12-18T11:30:34.743Z,44
2022-12-18T11:31:34.883Z,44
2022-12-18T11:32:34.840Z,44
2022-12-18T11:33:34.811Z,44
2022-12-18T11:34:34.740Z,44
2022-12-18T11:35:34.820Z,43
2022-12-18T11:36:34.728Z,43
2022-12-18T11:37:34.753Z,42
2022-12-18T11:38:34.703Z,42
2022-12-18T11:39:34.740Z,42
2022-12-18T11:40:39.387Z,42
2022-12-18T11:41:34.764Z,42
2022-12-18T11:42:34.878Z,42
2022-12-18T11:43:34.728Z,42
2022-12-18T11:44:34.737Z,41
2022-12-18T11:45:34.732Z,41
2022-12-18T11:46:34.766Z,41
2022-12-18T11:47:34.750Z,41
2022-12-18T11:48:34.852Z,41
2022-12-18T11:49:34.738Z,41
2022-12-18T11:50:34.723Z,40
2022-12-18T11:51:34.786Z,41
2022-12-18T11:52:34.739Z,41
2022-12-18T11:53:34.747Z,41
2022-12-18T11:54:34.736Z,41
2022-12-18T11:55:34.737Z,87
2022-12-18T11:56:34.928Z,86
2022-12-18T11:57:34.745Z,86
2022-12-18T11:58:34.747Z,86
2022-12-18T11:59:34.751Z,86
2022-12-18T12:00:34.746Z,86
2022-12-18T12:01:37.693Z,86
2022-12-18T12:02:34.868Z,87
2022-12-18T12:03:34.753Z,87
2022-12-18T12:04:34.954Z,87
2022-12-18T12:05:34.837Z,87
2022-12-18T12:06:34.778Z,87
2022-12-18T12:07:34.789Z,87
2022-12-18T12:08:34.788Z,86
2022-12-18T12:09:34.789Z,86
2022-12-18T12:10:34.789Z,86
2022-12-18T12:11:34.804Z,85
2022-12-18T12:12:34.757Z,85
2022-12-18T12:13:34.791Z,86
2022-12-18T12:14:34.820Z,86
2022-12-18T12:15:34.796Z,86
2022-12-18T12:16:34.865Z,86
2022-12-18T12:17:34.769Z,86
2022-12-18T12:18:34.774Z,86
2022-12-18T12:19:34.766Z,86
2022-12-18T12:20:36.184Z,86
2022-12-18T12:21:34.804Z,86
2022-12-18T12:22:34.759Z,87
2022-12-18T12:23:34.814Z,86
2022-12-18T12:24:34.764Z,86
2022-12-18T12:25:34.905Z,86
2022-12-18T12:26:34.846Z,85
2022-12-18T12:27:34.922Z,85
2022-12-18T12:28:34.838Z,85
2022-12-18T12:29:34.817Z,85
2022-12-18T12:30:34.861Z,85
2022-12-18T12:31:34.991Z,84
2022-12-18T12:32:34.825Z,85
2022-12-18T12:33:34.814Z,85
2022-12-18T12:34:34.847Z,84
2022-12-18T12:35:34.838Z,84
2022-12-18T12:36:34.975Z,84
2022-12-18T12:37:34.856Z,84
2022-12-18T12:38:34.812Z,84
2022-12-18T12:39:34.872Z,42
2022-12-18T12:40:52.334Z,43
2022-12-18T12:41:34.989Z,42
2022-12-18T12:42:34.886Z,42
2022-12-18T12:43:34.913Z,47
2022-12-18T12:44:34.882Z,51
2022-12-18T12:45:34.935Z,50
2022-12-18T12:46:34.952Z,84
2022-12-18T12:47:34.924Z,42
2022-12-18T12:48:34.875Z,42
2022-12-18T12:49:38.997Z,41
2022-12-18T12:50:34.879Z,40
2022-12-18T12:51:34.995Z,40
2022-12-18T12:52:35.043Z,40
2022-12-18T12:53:34.881Z,40
2022-12-18T12:54:34.876Z,40
2022-12-18T12:55:34.924Z,40
2022-12-18T12:56:34.917Z,39
2022-12-18T12:57:34.879Z,40
2022-12-18T12:58:34.998Z,40
2022-12-18T12:59:34.922Z,40
2022-12-18T13:00:34.909Z,40
2022-12-18T13:01:35.113Z,40
2022-12-18T13:02:35.015Z,40
2022-12-18T13:03:34.955Z,40
2022-12-18T13:04:34.916Z,39
2022-12-18T13:05:35.121Z,39
2022-12-18T13:06:35.954Z,40
2022-12-18T13:07:34.953Z,40
2022-12-18T13:08:35.277Z,40
2022-12-18T13:09:36.678Z,40
2022-12-18T13:10:34.916Z,40
2022-12-18T13:11:34.969Z,40
2022-12-18T13:12:35.283Z,40
2022-12-18T13:13:34.964Z,40
2022-12-18T13:14:34.911Z,40
2022-12-18T13:15:35.849Z,40
2022-12-18T13:16:34.955Z,40
2022-12-18T13:17:35.070Z,40
2022-12-18T13:18:34.939Z,40
2022-12-18T13:19:35.018Z,40
2022-12-18T13:20:34.949Z,40
2022-12-18T13:21:35.028Z,40
2022-12-18T13:22:34.955Z,40
2022-12-18T13:23:34.970Z,84
2022-12-18T13:24:35.122Z,40
2022-12-18T13:25:34.939Z,40
2022-12-18T13:26:35.179Z,40
2022-12-18T13:27:34.950Z,40
2022-12-18T13:28:34.954Z,40
2022-12-18T13:29:34.944Z,40
2022-12-18T13:30:34.980Z,40
2022-12-18T13:31:34.985Z,40
2022-12-18T13:32:34.986Z,40
2022-12-18T13:33:34.984Z,40
2022-12-18T13:34:35.296Z,40
2022-12-18T13:35:34.945Z,40
2022-12-18T13:36:35.136Z,40
2022-12-18T13:37:35.039Z,40
2022-12-18T13:38:34.982Z,40
2022-12-18T13:39:36.017Z,40
2022-12-18T13:40:35.123Z,40
2022-12-18T13:41:35.014Z,40
2022-12-18T13:42:35.011Z,40
2022-12-18T13:43:35.022Z,40
2022-12-18T13:44:40.183Z,40
2022-12-18T13:45:35.073Z,40
2022-12-18T13:46:35.039Z,40
2022-12-18T13:47:35.037Z,40
2022-12-18T13:48:35.033Z,40
2022-12-18T13:49:34.997Z,40
2022-12-18T13:50:35.959Z,40
2022-12-18T13:51:35.038Z,40
2022-12-18T13:52:35.062Z,41
2022-12-18T13:53:35.069Z,40
2022-12-18T13:54:35.054Z,40
2022-12-18T13:55:35.195Z,40
2022-12-18T13:56:35.270Z,40
2022-12-18T13:57:35.025Z,40
2022-12-18T13:58:35.061Z,40
2022-12-18T13:59:35.020Z,40
2022-12-18T14:00:35.021Z,41
2022-12-18T14:01:35.170Z,41
2022-12-18T14:02:35.204Z,40
2022-12-18T14:03:35.423Z,40
2022-12-18T14:04:35.082Z,40
2022-12-18T14:05:35.067Z,41
2022-12-18T14:06:35.246Z,41
2022-12-18T14:07:36.287Z,40
2022-12-18T14:08:35.071Z,40
2022-12-18T14:09:35.052Z,40
2022-12-18T14:10:48.116Z,41
2022-12-18T14:11:35.076Z,41
2022-12-18T14:12:35.142Z,40
2022-12-18T14:13:35.189Z,40
2022-12-18T14:14:35.103Z,40
2022-12-18T14:15:35.196Z,41